Time;durP1;ratioP1;P1;durP2;ratioP2;P2;SDS_P1;SDS_P2;PMS_P1;PMS_P2;Temp;Humidity;BMP_temperature;BMP_pressure;BME280_temperature;BME280_humidity;BME280_pressure;Samples;Min_cycle;Max_cycle;Signal;HPM_P1;HPM_P2
2022/02/19 00:02:44;;;;;;;2.40;1.83;;;8.70;99.90;;;;;;4874411;29;20488;-80
2022/02/19 00:05:28;;;;;;;3.17;1.60;;;8.70;99.90;;;;;;4875646;29;20468;-80
2022/02/19 00:08:14;;;;;;;3.53;1.90;;;8.70;99.90;;;;;;4876114;29;20579;-80
2022/02/19 00:10:59;;;;;;;2.13;1.73;;;8.60;99.90;;;;;;4875699;29;20407;-80
2022/02/19 00:13:43;;;;;;;4.20;1.80;;;8.60;99.90;;;;;;4876015;29;20398;-79
2022/02/19 00:16:28;;;;;;;7.70;1.80;;;8.50;99.90;;;;;;4875926;29;20391;-80
2022/02/19 00:19:14;;;;;;;1.77;1.57;;;8.50;99.90;;;;;;4876212;29;20411;-80
2022/02/19 00:21:59;;;;;;;14.20;1.70;;;8.40;99.90;;;;;;4876142;29;20736;-79
2022/02/19 00:24:43;;;;;;;4.87;2.07;;;8.30;99.90;;;;;;4874985;29;20430;-80
2022/02/19 00:27:28;;;;;;;2.10;1.40;;;8.40;99.90;;;;;;4874848;29;20410;-80
2022/02/19 00:30:13;;;;;;;2.37;1.70;;;8.30;99.90;;;;;;4875234;29;20483;-79
2022/02/19 00:32:57;;;;;;;2.50;1.73;;;8.30;99.90;;;;;;4878911;29;20471;-80
2022/02/19 00:35:42;;;;;;;7.43;2.20;;;8.30;99.90;;;;;;4879610;29;20426;-80
2022/02/19 00:38:27;;;;;;;4.67;1.97;;;8.20;99.90;;;;;;4879753;29;20472;-80
2022/02/19 00:41:12;;;;;;;5.50;2.20;;;8.30;99.90;;;;;;4879538;29;20441;-79
2022/02/19 00:43:57;;;;;;;3.03;1.63;;;8.20;99.90;;;;;;4879312;29;20406;-80
2022/02/19 00:46:42;;;;;;;3.30;2.03;;;8.10;99.90;;;;;;4879368;29;20406;-80
2022/02/19 00:49:27;;;;;;;5.37;1.73;;;8.10;99.90;;;;;;4878544;29;20453;-80
2022/02/19 00:52:11;;;;;;;6.33;2.17;;;8.00;99.90;;;;;;4878999;29;20423;-80
2022/02/19 00:54:56;;;;;;;6.87;2.30;;;8.10;99.90;;;;;;4878594;29;20595;-80
2022/02/19 00:57:41;;;;;;;4.77;1.40;;;8.10;99.90;;;;;;4877647;29;20403;-80
2022/02/19 01:00:26;;;;;;;6.43;3.10;;;8.10;99.90;;;;;;4864596;29;20399;-81
2022/02/19 01:03:10;;;;;;;4.60;2.33;;;8.00;99.90;;;;;;4879068;29;20410;-81
2022/02/19 01:05:54;;;;;;;2.70;1.37;;;8.00;99.90;;;;;;4878637;29;20400;-80
2022/02/19 01:08:39;;;;;;;2.30;1.37;;;7.90;99.90;;;;;;4877009;29;20488;-80
2022/02/19 01:11:24;;;;;;;5.10;1.70;;;7.90;99.90;;;;;;4877476;29;20488;-80
2022/02/19 01:14:08;;;;;;;3.43;2.17;;;7.90;99.90;;;;;;4879387;29;20407;-79
2022/02/19 01:16:53;;;;;;;10.03;2.93;;;7.80;99.90;;;;;;4863567;29;20387;-80
2022/02/19 01:19:38;;;;;;;3.63;1.83;;;7.80;99.90;;;;;;4878396;29;20402;-80
2022/02/19 01:22:25;;;;;;;7.73;1.90;;;7.80;99.90;;;;;;4879152;29;20520;-80
2022/02/19 01:25:10;;;;;;;3.57;2.03;;;7.80;99.90;;;;;;4876909;29;20771;-80
2022/02/19 01:27:55;;;;;;;4.73;1.87;;;7.70;99.90;;;;;;4878503;29;20403;-80
2022/02/19 01:30:39;;;;;;;6.63;2.03;;;7.80;99.90;;;;;;4877747;29;20454;-80
2022/02/19 01:33:24;;;;;;;11.10;2.23;;;7.80;99.90;;;;;;4877972;29;20395;-82
2022/02/19 01:36:09;;;;;;;4.73;1.53;;;7.80;99.90;;;;;;4864378;29;20403;-81
2022/02/19 01:38:53;;;;;;;5.47;1.50;;;7.80;99.90;;;;;;4878115;29;20515;-81
2022/02/19 01:41:37;;;;;;;6.13;2.37;;;7.80;99.90;;;;;;4878286;29;20407;-81
2022/02/19 01:44:34;;;;;;;7.03;4.50;;;7.80;99.90;;;;;;4878368;29;20382;-81
2022/02/19 01:47:19;;;;;;;6.63;2.20;;;7.80;99.90;;;;;;4878429;29;20429;-82
2022/02/19 01:50:05;;;;;;;6.37;1.77;;;7.70;99.90;;;;;;4863979;29;20514;-81
2022/02/19 01:52:50;;;;;;;5.30;2.47;;;7.70;99.90;;;;;;4878252;29;20406;-81
2022/02/19 01:55:35;;;;;;;5.80;1.97;;;7.70;99.90;;;;;;4878403;29;20511;-81
2022/02/19 01:58:21;;;;;;;9.20;2.07;;;7.70;99.90;;;;;;4878162;29;20411;-81
2022/02/19 02:01:06;;;;;;;4.30;2.67;;;7.70;99.90;;;;;;4878217;29;20425;-81
2022/02/19 02:03:50;;;;;;;4.30;1.67;;;7.60;99.90;;;;;;4877591;29;20399;-81
2022/02/19 02:06:36;;;;;;;6.57;1.53;;;7.70;99.90;;;;;;4878596;29;20407;-82
2022/02/19 02:09:20;;;;;;;2.83;1.37;;;7.60;99.90;;;;;;4878327;29;20461;-82
2022/02/19 02:12:07;;;;;;;4.80;2.50;;;7.60;99.90;;;;;;4864432;29;20399;-82
2022/02/19 02:14:51;;;;;;;1.57;1.47;;;7.60;99.90;;;;;;4882531;29;20415;-82
2022/02/19 02:17:36;;;;;;;4.77;2.43;;;7.60;99.90;;;;;;4884192;29;20412;-81
2022/02/19 02:20:20;;;;;;;3.53;1.80;;;7.50;99.90;;;;;;4884553;29;20449;-81
2022/02/19 02:23:05;;;;;;;1.40;1.30;;;7.50;99.90;;;;;;4883626;29;20404;-81
2022/02/19 02:25:51;;;;;;;3.33;1.30;;;7.50;99.90;;;;;;4882844;29;20476;-81
2022/02/19 02:28:35;;;;;;;3.97;1.10;;;7.40;99.90;;;;;;4883339;29;20402;-81
2022/02/19 02:31:21;;;;;;;3.20;1.40;;;7.50;99.90;;;;;;4883586;29;20430;-81
2022/02/19 02:34:06;;;;;;;3.17;1.73;;;7.50;99.90;;;;;;4882752;29;20457;-81
2022/02/19 02:36:51;;;;;;;3.67;1.50;;;7.40;99.90;;;;;;4883413;29;20440;-81
2022/02/19 02:39:35;;;;;;;4.03;2.07;;;7.40;99.90;;;;;;4883929;29;20244;-81
2022/02/19 02:42:21;;;;;;;4.10;2.17;;;7.50;99.90;;;;;;4883714;29;20432;-81
2022/02/19 02:45:06;;;;;;;3.70;1.60;;;7.50;99.90;;;;;;4884051;29;20388;-81
2022/02/19 02:47:51;;;;;;;5.20;2.17;;;7.50;99.90;;;;;;4883441;29;20399;-79
2022/02/19 02:50:35;;;;;;;3.03;2.47;;;7.60;99.90;;;;;;4881968;29;20437;-82
2022/02/19 02:53:24;;;;;;;2.43;1.50;;;7.50;99.90;;;;;;4875909;29;20402;-81
2022/02/19 02:56:09;;;;;;;1.00;1.00;;;7.40;99.90;;;;;;4857519;29;20529;-81
2022/02/19 02:58:54;;;;;;;5.43;2.17;;;7.40;99.90;;;;;;4858498;29;20431;-81
2022/02/19 03:01:39;;;;;;;2.23;1.30;;;7.40;99.90;;;;;;4871478;29;20371;-82
2022/02/19 03:04:24;;;;;;;6.80;3.60;;;7.40;99.90;;;;;;4859134;29;20971;-81
2022/02/19 03:07:10;;;;;;;3.63;2.33;;;7.40;99.90;;;;;;4854401;29;20428;-80
2022/02/19 03:09:54;;;;;;;7.23;1.57;;;7.40;99.90;;;;;;4857221;29;20707;-81
2022/02/19 03:12:39;;;;;;;3.93;2.20;;;7.40;99.90;;;;;;4858491;29;20921;-81
2022/02/19 03:15:24;;;;;;;4.97;1.77;;;7.40;99.90;;;;;;4858148;29;20430;-81
2022/02/19 03:18:09;;;;;;;3.33;1.40;;;7.30;99.90;;;;;;4858025;29;20441;-80
2022/02/19 03:20:54;;;;;;;4.73;2.13;;;7.30;99.90;;;;;;4857842;29;20416;-80
2022/02/19 03:23:38;;;;;;;4.93;1.87;;;7.20;99.90;;;;;;4869270;29;20400;-81
2022/02/19 03:26:23;;;;;;;4.10;2.30;;;7.40;99.90;;;;;;4857346;29;20465;-80
2022/02/19 03:29:09;;;;;;;4.50;1.93;;;7.30;99.90;;;;;;4857021;29;20452;-79
2022/02/19 03:31:53;;;;;;;5.70;2.40;;;7.30;99.90;;;;;;4860786;29;20421;-80
2022/02/19 03:34:37;;;;;;;5.57;2.10;;;7.30;99.90;;;;;;4860866;29;20392;-80
2022/02/19 03:37:22;;;;;;;5.00;2.30;;;7.20;99.90;;;;;;4860426;29;20496;-81
2022/02/19 03:40:08;;;;;;;4.67;2.10;;;7.20;99.90;;;;;;4860928;29;20408;-81
2022/02/19 03:42:53;;;;;;;2.60;1.50;;;7.20;99.90;;;;;;4857957;29;20378;-82
2022/02/19 03:45:40;;;;;;;2.53;2.30;;;7.10;99.90;;;;;;4858839;29;20473;-80
2022/02/19 03:48:25;;;;;;;6.57;2.00;;;7.10;99.90;;;;;;4858298;29;20415;-80
2022/02/19 03:51:10;;;;;;;4.70;1.73;;;7.10;99.90;;;;;;4856769;29;20399;-81
2022/02/19 03:53:55;;;;;;;8.10;2.50;;;7.00;99.90;;;;;;4870091;29;20400;-81
2022/02/19 03:56:39;;;;;;;8.03;2.93;;;7.00;99.90;;;;;;4857722;29;20481;-81
2022/02/19 03:59:24;;;;;;;2.83;2.60;;;7.00;99.90;;;;;;4858104;29;20569;-81
2022/02/19 04:02:09;;;;;;;6.60;1.87;;;7.00;99.90;;;;;;4870402;29;20403;-80
2022/02/19 04:04:54;;;;;;;6.97;1.60;;;7.00;99.90;;;;;;4859545;29;20404;-81
2022/02/19 04:07:38;;;;;;;4.27;2.00;;;7.00;99.90;;;;;;4861965;29;20400;-81
2022/02/19 04:10:23;;;;;;;2.07;1.53;;;7.00;99.90;;;;;;4860220;29;20455;-81
2022/02/19 04:13:08;;;;;;;7.30;2.07;;;6.90;99.90;;;;;;4861614;29;20440;-81
2022/02/19 04:15:52;;;;;;;7.47;1.97;;;6.90;99.90;;;;;;4861324;29;20921;-81
2022/02/19 04:18:37;;;;;;;4.50;1.33;;;6.90;99.90;;;;;;4862109;29;20400;-79
2022/02/19 04:21:22;;;;;;;2.70;1.80;;;6.80;99.90;;;;;;4860004;29;20429;-79
2022/02/19 04:24:06;;;;;;;5.03;2.40;;;6.90;99.90;;;;;;4861096;29;20391;-82
2022/02/19 04:26:51;;;;;;;4.40;1.90;;;6.80;99.90;;;;;;4860466;29;20403;-81
2022/02/19 04:29:35;;;;;;;3.03;1.80;;;6.80;99.90;;;;;;4861771;29;20467;-81
2022/02/19 04:32:20;;;;;;;2.10;1.50;;;6.80;99.90;;;;;;4861371;29;20370;-81
2022/02/19 04:35:05;;;;;;;2.43;2.23;;;6.70;99.90;;;;;;4861488;29;20470;-81
2022/02/19 04:37:49;;;;;;;3.67;1.70;;;6.70;99.90;;;;;;4861394;29;20457;-81
2022/02/19 04:40:34;;;;;;;3.87;1.67;;;6.70;99.90;;;;;;4861203;29;20569;-81
2022/02/19 04:43:19;;;;;;;2.17;1.70;;;6.80;99.90;;;;;;4860852;29;20428;-81
2022/02/19 04:46:03;;;;;;;1.10;1.00;;;6.80;99.90;;;;;;4859431;29;21112;-80
2022/02/19 04:48:48;;;;;;;5.77;1.67;;;6.90;99.90;;;;;;4860037;29;20423;-81
2022/02/19 04:51:32;;;;;;;4.20;1.60;;;6.80;99.90;;;;;;4860760;29;20423;-80
2022/02/19 04:54:17;;;;;;;1.30;1.20;;;6.80;99.90;;;;;;4859750;29;20412;-80
2022/02/19 04:57:02;;;;;;;3.27;1.70;;;6.80;99.90;;;;;;4878731;29;20467;-80
2022/02/19 04:59:47;;;;;;;2.07;1.47;;;6.70;99.90;;;;;;4878335;29;20410;-80
2022/02/19 05:02:31;;;;;;;6.60;1.70;;;6.70;99.90;;;;;;4878918;29;20418;-80
2022/02/19 05:05:15;;;;;;;5.20;2.10;;;6.70;99.90;;;;;;4878442;29;20381;-80
2022/02/19 05:08:00;;;;;;;2.90;2.00;;;6.80;99.90;;;;;;4878490;29;20399;-80
2022/02/19 05:10:44;;;;;;;2.80;1.57;;;6.80;99.90;;;;;;4878029;29;20470;-81
2022/02/19 05:13:29;;;;;;;3.13;1.80;;;6.80;99.90;;;;;;4878434;29;20392;-81
2022/02/19 05:16:14;;;;;;;3.37;1.40;;;6.80;99.90;;;;;;4877887;29;20407;-81
2022/02/19 05:18:58;;;;;;;5.40;2.23;;;6.80;99.90;;;;;;4878584;29;20391;-80
2022/02/19 05:21:43;;;;;;;5.73;1.60;;;6.80;99.90;;;;;;4890002;29;20424;-81
2022/02/19 05:24:27;;;;;;;2.40;1.83;;;6.80;99.90;;;;;;4878009;29;20403;-80
2022/02/19 05:27:12;;;;;;;3.93;1.47;;;6.90;99.90;;;;;;4877761;29;20475;-80
2022/02/19 05:29:58;;;;;;;1.93;1.83;;;6.80;99.90;;;;;;4877399;29;20470;-80
2022/02/19 05:32:42;;;;;;;5.93;1.60;;;6.80;99.90;;;;;;4890986;29;20399;-81
2022/02/19 05:35:27;;;;;;;9.53;2.03;;;6.80;99.90;;;;;;4885103;29;20406;-80
2022/02/19 05:38:11;;;;;;;7.77;2.07;;;6.80;99.90;;;;;;4880094;29;20411;-81
2022/02/19 05:40:56;;;;;;;5.93;1.90;;;6.80;99.90;;;;;;4878165;29;20402;-81
2022/02/19 05:43:41;;;;;;;3.10;2.13;;;6.70;99.90;;;;;;4891022;29;20398;-81
2022/02/19 05:46:25;;;;;;;2.03;1.20;;;6.70;99.90;;;;;;4877831;29;20475;-80
2022/02/19 05:49:10;;;;;;;3.77;1.87;;;6.80;99.90;;;;;;4878819;29;20457;-81
2022/02/19 05:51:55;;;;;;;1.20;1.07;;;6.80;99.90;;;;;;4878505;29;20425;-81
2022/02/19 05:54:39;;;;;;;5.50;1.40;;;6.80;99.90;;;;;;4877683;29;20459;-81
2022/02/19 05:57:24;;;;;;;1.63;1.40;;;6.70;99.90;;;;;;4878553;29;20430;-81
2022/02/19 06:00:10;;;;;;;3.37;1.63;;;6.70;99.90;;;;;;4878531;29;20402;-81
2022/02/19 06:02:54;;;;;;;4.90;1.63;;;6.60;99.90;;;;;;4890631;29;20401;-81
2022/02/19 06:05:39;;;;;;;4.40;1.93;;;6.60;99.90;;;;;;4876812;29;20506;-80
2022/02/19 06:08:23;;;;;;;5.73;1.73;;;6.60;99.90;;;;;;4877695;29;20423;-81
2022/02/19 06:11:08;;;;;;;2.80;1.27;;;6.60;99.90;;;;;;4877529;29;20435;-80
2022/02/19 06:13:53;;;;;;;3.10;1.27;;;6.60;99.90;;;;;;4877828;29;20490;-80
2022/02/19 06:16:38;;;;;;;3.60;2.20;;;6.40;99.90;;;;;;4890248;29;20392;-80
2022/02/19 06:19:23;;;;;;;1.33;1.23;;;6.60;99.90;;;;;;4890010;29;20391;-81
2022/02/19 06:22:09;;;;;;;1.87;1.70;;;6.60;99.90;;;;;;4876712;29;20563;-81
2022/02/19 06:24:53;;;;;;;7.67;3.23;;;6.50;99.90;;;;;;4877153;29;20477;-82
2022/02/19 06:27:39;;;;;;;5.53;1.90;;;6.40;99.90;;;;;;4876493;29;20370;-81
2022/02/19 06:30:23;;;;;;;12.53;2.60;;;6.30;99.90;;;;;;4877168;29;20489;-82
2022/02/19 06:33:08;;;;;;;14.33;2.73;;;6.10;99.90;;;;;;4877379;29;20448;-80
2022/02/19 06:35:53;;;;;;;2.20;1.47;;;6.00;99.90;;;;;;4877584;29;20387;-81
2022/02/19 06:38:39;;;;;;;5.70;3.17;;;6.00;99.90;;;;;;4877436;29;20395;-82
2022/02/19 06:41:24;;;;;;;6.93;2.83;;;6.00;99.90;;;;;;4877383;29;20702;-82
2022/02/19 06:44:09;;;;;;;6.73;2.37;;;6.00;99.90;;;;;;4877050;29;20414;-81
2022/02/19 06:46:53;;;;;;;1.40;1.30;;;5.90;99.90;;;;;;4877034;29;20403;-82
2022/02/19 06:49:37;;;;;;;2.27;2.07;;;6.10;99.90;;;;;;4877542;29;20470;-81
2022/02/19 06:52:22;;;;;;;3.20;1.73;;;6.00;99.90;;;;;;4876997;29;20402;-82
2022/02/19 06:55:06;;;;;;;2.40;1.70;;;6.00;99.90;;;;;;4876680;29;20486;-82
2022/02/19 06:57:51;;;;;;;2.63;1.43;;;5.90;99.90;;;;;;4877564;29;20442;-80
2022/02/19 07:00:36;;;;;;;2.83;1.40;;;6.00;99.90;;;;;;4877595;29;20792;-81
2022/02/19 07:03:21;;;;;;;2.70;1.40;;;6.10;99.90;;;;;;4876896;29;20448;-81
2022/02/19 07:06:05;;;;;;;3.83;2.17;;;6.10;99.90;;;;;;4877528;29;20461;-82
2022/02/19 07:08:51;;;;;;;9.27;3.53;;;6.20;99.90;;;;;;4877724;29;20402;-81
2022/02/19 07:11:35;;;;;;;10.40;1.77;;;6.20;99.90;;;;;;4877323;29;20398;-80
2022/02/19 07:14:20;;;;;;;3.97;1.50;;;6.20;99.90;;;;;;4887170;29;20452;-81
2022/02/19 07:17:05;;;;;;;10.10;2.33;;;6.20;99.90;;;;;;4876222;29;20401;-81
2022/02/19 07:19:50;;;;;;;5.77;1.87;;;6.30;99.90;;;;;;4874933;29;20396;-82
2022/02/19 07:22:35;;;;;;;6.00;1.47;;;6.30;99.90;;;;;;4875806;29;20424;-80
2022/02/19 07:25:20;;;;;;;1.90;1.57;;;6.20;99.90;;;;;;4875009;29;20893;-81
2022/02/19 07:28:06;;;;;;;5.87;1.70;;;6.30;99.90;;;;;;4876239;29;20407;-80
2022/02/19 07:30:51;;;;;;;2.50;1.77;;;6.20;99.90;;;;;;4875714;29;20425;-81
2022/02/19 07:33:35;;;;;;;8.17;2.03;;;6.30;99.90;;;;;;4875985;29;20377;-80
2022/02/19 07:36:20;;;;;;;6.57;2.47;;;6.40;99.90;;;;;;4876177;29;20391;-81
2022/02/19 07:39:07;;;;;;;3.80;1.40;;;6.50;99.90;;;;;;4887939;29;20489;-81
2022/02/19 07:41:52;;;;;;;3.30;2.17;;;6.50;99.90;;;;;;4879824;29;20471;-81
2022/02/19 07:44:38;;;;;;;5.57;1.87;;;6.40;99.90;;;;;;4878748;29;20486;-81
2022/02/19 07:47:24;;;;;;;1.60;1.50;;;6.50;99.90;;;;;;4879905;29;20435;-80
2022/02/19 07:59:10;;;;;;;2.93;2.63;;;6.70;99.90;;;;;;4900091;29;20738;-81
2022/02/19 08:01:54;;;;;;;2.00;1.50;;;6.70;99.90;;;;;;4878668;29;20442;-81
2022/02/19 08:04:39;;;;;;;5.47;2.13;;;6.70;99.90;;;;;;4879112;29;20420;-80
2022/02/19 08:07:23;;;;;;;4.03;2.10;;;6.60;99.90;;;;;;4879609;29;20440;-81
2022/02/19 08:10:08;;;;;;;6.10;3.73;;;6.80;99.90;;;;;;4879525;29;20871;-81
2022/02/19 08:12:53;;;;;;;2.73;2.13;;;6.90;99.90;;;;;;4879579;29;20421;-81
2022/02/19 08:15:37;;;;;;;2.73;1.43;;;6.90;99.90;;;;;;4878433;29;20398;-81
2022/02/19 08:18:25;;;;;;;4.90;1.80;;;7.00;99.90;;;;;;4879421;29;20903;-80
2022/02/19 08:21:10;;;;;;;4.73;2.20;;;7.10;99.90;;;;;;4859154;29;20517;-79
2022/02/19 08:23:54;;;;;;;4.43;1.50;;;7.20;99.90;;;;;;4859200;29;20439;-81
2022/02/19 08:26:38;;;;;;;1.50;1.33;;;7.20;99.90;;;;;;4846862;29;20435;-81
2022/02/19 08:29:23;;;;;;;3.30;2.40;;;7.40;99.90;;;;;;4861725;29;20506;-81
2022/02/19 08:32:08;;;;;;;3.70;2.90;;;7.60;99.90;;;;;;4861017;29;20408;-82
2022/02/19 08:34:53;;;;;;;6.47;2.60;;;7.60;99.90;;;;;;4862557;29;20433;-80
2022/02/19 08:37:38;;;;;;;3.20;1.93;;;7.70;99.90;;;;;;4861071;29;20403;-79
2022/02/19 08:40:24;;;;;;;4.00;1.77;;;7.30;99.90;;;;;;4866534;29;20456;-79
2022/02/19 08:43:09;;;;;;;4.60;1.77;;;7.60;99.90;;;;;;4864586;29;20408;-80
2022/02/19 08:45:53;;;;;;;5.73;1.90;;;8.00;99.90;;;;;;4864851;29;20416;-78
2022/02/19 08:48:38;;;;;;;2.43;1.80;;;8.30;99.90;;;;;;4865343;29;20425;-79
2022/02/19 08:51:22;;;;;;;3.33;1.70;;;8.40;99.90;;;;;;4867634;29;20435;-82
2022/02/19 08:54:07;;;;;;;2.43;1.83;;;8.20;99.90;;;;;;4877481;29;20809;-81
2022/02/19 08:56:51;;;;;;;4.20;2.20;;;9.10;99.90;;;;;;4877356;29;20472;-82
2022/02/19 08:59:36;;;;;;;8.60;2.20;;;9.00;99.90;;;;;;4879082;29;20406;-82
2022/02/19 09:02:21;;;;;;;5.00;1.70;;;9.50;99.90;;;;;;4877662;29;20424;-80
2022/02/19 09:05:09;;;;;;;5.27;2.30;;;9.50;99.90;;;;;;4878930;29;20391;-79
2022/02/19 09:07:54;;;;;;;4.40;1.43;;;10.40;99.90;;;;;;4878798;29;20472;-82
2022/02/19 09:10:39;;;;;;;2.57;1.60;;;10.00;99.90;;;;;;4877692;29;20808;-79
2022/02/19 09:13:24;;;;;;;6.57;2.37;;;10.30;99.90;;;;;;4876866;29;20411;-80
2022/02/19 09:16:09;;;;;;;1.60;1.50;;;10.50;99.90;;;;;;4877993;29;20413;-81
2022/02/19 09:18:54;;;;;;;5.57;2.53;;;9.70;99.90;;;;;;4877474;29;20410;-81
2022/02/19 09:21:42;;;;;;;2.40;1.50;;;10.00;99.90;;;;;;4876898;29;20399;-81
2022/02/19 09:24:28;;;;;;;3.53;1.70;;;10.50;99.90;;;;;;4878037;29;20435;-82
2022/02/19 09:27:13;;;;;;;2.87;1.67;;;10.30;99.90;;;;;;4877514;29;20444;-81
2022/02/19 09:29:57;;;;;;;2.37;1.60;;;10.00;99.90;;;;;;4890400;29;20594;-80
2022/02/19 09:32:43;;;;;;;6.53;1.67;;;10.90;99.90;;;;;;4877453;29;20423;-81
2022/02/19 09:35:28;;;;;;;3.43;1.50;;;11.70;98.40;;;;;;4878725;29;20403;-80
2022/02/19 09:38:12;;;;;;;4.93;1.93;;;11.70;96.80;;;;;;4890663;29;20482;-81
2022/02/19 09:41:00;;;;;;;3.53;1.90;;;11.20;95.20;;;;;;4877412;29;20427;-81
2022/02/19 09:43:45;;;;;;;2.30;1.40;;;11.10;96.20;;;;;;4877269;29;20549;-80
2022/02/19 09:46:32;;;;;;;6.30;2.13;;;12.20;94.80;;;;;;4878605;29;20509;-80
2022/02/19 09:49:19;;;;;;;1.50;1.40;;;12.80;93.30;;;;;;4890996;29;20470;-81
2022/02/19 09:52:03;;;;;;;9.80;2.40;;;13.10;92.10;;;;;;4874847;29;20489;-80
2022/02/19 09:54:48;;;;;;;2.87;1.40;;;12.50;88.50;;;;;;4878175;29;20470;-80
2022/02/19 09:57:33;;;;;;;4.60;1.80;;;12.00;91.20;;;;;;4879097;29;20427;-81
2022/02/19 10:00:36;;;;;;;1.63;1.30;;;11.40;92.00;;;;;;4893432;29;20411;-81
2022/02/19 10:03:26;;;;;;;2.50;1.57;;;11.60;91.60;;;;;;4879851;29;20401;-81
2022/02/19 10:06:13;;;;;;;5.10;3.20;;;12.50;91.40;;;;;;4876937;29;20406;-81
2022/02/19 10:09:18;;;;;;;1.50;1.40;;;12.00;87.50;;;;;;4878003;29;20520;-81
2022/02/19 10:12:11;;;;;;;4.10;3.13;;;12.60;89.30;;;;;;4877904;29;20402;-80
2022/02/19 10:14:56;;;;;;;4.30;1.77;;;13.30;83.70;;;;;;4890390;29;20535;-80
2022/02/19 10:17:41;;;;;;;9.30;2.47;;;13.40;81.20;;;;;;4878033;29;20396;-80
2022/02/19 10:20:25;;;;;;;3.87;2.27;;;13.10;82.90;;;;;;4877343;29;20403;-79
2022/02/19 10:23:14;;;;;;;3.87;1.60;;;12.60;82.10;;;;;;4874544;29;20402;-80
2022/02/19 10:26:00;;;;;;;8.20;3.40;;;13.70;77.80;;;;;;4850699;29;20493;-80
2022/02/19 10:29:03;;;;;;;5.60;2.17;;;14.20;82.30;;;;;;4850091;29;20392;-80
2022/02/19 10:31:56;;;;;;;2.93;2.33;;;15.50;79.30;;;;;;4851192;29;20407;-81
2022/02/19 10:34:54;;;;;;;7.10;2.60;;;16.90;73.10;;;;;;4848789;29;21060;-81
2022/02/19 10:37:48;;;;;;;2.80;1.30;;;17.00;72.60;;;;;;4848240;29;20404;-80
2022/02/19 10:40:38;;;;;;;3.47;2.47;;;15.70;66.70;;;;;;4811605;29;20417;-81
2022/02/19 10:43:31;;;;;;;2.40;1.80;;;14.30;70.30;;;;;;4811693;29;20412;-81
2022/02/19 10:46:27;;;;;;;3.70;1.80;;;13.60;70.00;;;;;;4811229;29;20786;-80
2022/02/19 10:49:11;;;;;;;2.20;1.80;;;13.30;69.00;;;;;;4811345;29;20530;-81
2022/02/19 10:51:56;;;;;;;3.20;1.27;;;14.00;70.80;;;;;;4812675;29;20473;-81
2022/02/19 10:54:40;;;;;;;5.60;1.63;;;13.80;70.50;;;;;;4795022;30;20500;-78
2022/02/19 10:57:25;;;;;;;1.53;1.43;;;13.20;69.50;;;;;;4808324;29;20422;-81
2022/02/19 11:00:13;;;;;;;2.23;1.87;;;13.30;71.30;;;;;;4812835;29;20521;-82
2022/02/19 11:02:59;;;;;;;3.73;1.60;;;14.50;68.70;;;;;;4842956;29;20462;-81
2022/02/19 11:05:44;;;;;;;2.57;2.13;;;14.90;68.40;;;;;;4803437;29;20486;-81
2022/02/19 11:08:28;;;;;;;3.70;1.63;;;13.90;67.30;;;;;;4815892;29;20542;-80
2022/02/19 11:11:14;;;;;;;4.30;1.30;;;14.50;70.30;;;;;;4825176;29;20513;-82
2022/02/19 11:14:01;;;;;;;2.20;1.80;;;15.30;67.30;;;;;;4835506;29;20415;-81
2022/02/19 11:16:48;;;;;;;6.03;2.47;;;14.70;67.60;;;;;;4832059;29;20437;-81
2022/02/19 11:19:33;;;;;;;9.57;2.77;;;15.20;64.80;;;;;;4817429;29;20421;-81
2022/02/19 11:22:20;;;;;;;4.27;2.10;;;15.60;64.00;;;;;;4830385;29;20893;-81
2022/02/19 11:25:08;;;;;;;2.23;1.97;;;15.70;64.20;;;;;;4824934;29;20454;-79
2022/02/19 11:28:02;;;;;;;5.73;1.53;;;16.00;60.60;;;;;;4855892;29;20416;-80
2022/02/19 11:30:51;;;;;;;6.77;1.40;;;15.80;62.40;;;;;;4855022;29;20998;-80
2022/02/19 11:33:39;;;;;;;3.40;1.60;;;15.50;59.10;;;;;;4844164;29;20420;-80
2022/02/19 11:36:26;;;;;;;5.57;1.60;;;16.00;59.50;;;;;;4835557;29;20486;-80
2022/02/19 11:39:10;;;;;;;2.27;1.70;;;15.60;58.80;;;;;;4843815;29;20427;-83
2022/02/19 11:41:55;;;;;;;7.67;1.63;;;15.00;59.00;;;;;;4829213;29;20433;-80
2022/02/19 11:44:48;;;;;;;4.03;1.77;;;15.20;59.50;;;;;;4817551;29;20489;-81
2022/02/19 11:47:33;;;;;;;1.77;1.63;;;15.70;58.50;;;;;;4844516;29;20442;-80
2022/02/19 11:50:22;;;;;;;3.53;2.03;;;16.00;59.00;;;;;;4866456;29;20457;-81
2022/02/19 11:53:21;;;;;;;4.83;1.60;;;14.40;58.70;;;;;;4865942;29;20395;-81
2022/02/19 11:56:10;;;;;;;3.27;2.20;;;14.90;59.40;;;;;;4866858;29;20470;-81
2022/02/19 11:58:58;;;;;;;2.43;1.50;;;15.00;58.10;;;;;;4853499;29;20416;-81
2022/02/19 12:02:04;;;;;;;1.97;1.67;;;14.40;60.00;;;;;;4852989;29;20951;-81
2022/02/19 12:05:15;;;;;;;2.50;1.50;;;16.10;60.40;;;;;;4857017;29;20403;-79
2022/02/19 12:08:02;;;;;;;4.60;2.60;;;16.60;57.50;;;;;;4865388;29;20422;-81
2022/02/19 12:11:06;;;;;;;2.97;1.67;;;16.30;56.70;;;;;;4841115;29;20588;-81
2022/02/19 12:13:57;;;;;;;3.10;2.53;;;17.10;57.10;;;;;;4865797;29;20430;-80
2022/02/19 12:16:43;;;;;;;5.57;1.67;;;18.40;55.40;;;;;;4854681;29;20734;-79
2022/02/19 12:19:55;;;;;;;2.43;1.73;;;18.80;53.10;;;;;;4851191;29;20545;-81
2022/02/19 12:22:49;;;;;;;2.90;1.40;;;16.20;53.40;;;;;;4852188;29;20443;-81
2022/02/19 12:26:01;;;;;;;3.93;1.77;;;15.80;55.80;;;;;;4851023;29;20473;-81
2022/02/19 12:29:20;;;;;;;5.23;1.87;;;18.10;55.70;;;;;;4869906;29;20422;-81
2022/02/19 12:32:09;;;;;;;6.17;2.07;;;18.20;54.00;;;;;;4870633;29;20540;-81
2022/02/19 12:34:58;;;;;;;3.27;1.50;;;19.10;51.90;;;;;;4827216;29;20446;-81
2022/02/19 12:37:43;;;;;;;3.17;1.83;;;19.90;51.80;;;;;;4838808;29;20546;-81
2022/02/19 12:40:28;;;;;;;6.15;1.80;;;19.60;50.30;;;;;;4835359;29;20448;-82
2022/02/19 12:43:15;;;;;;;3.63;1.83;;;19.80;51.10;;;;;;4826150;29;20242;-81
2022/02/19 12:45:59;;;;;;;3.73;2.30;;;19.30;50.90;;;;;;4812323;29;20423;-79
2022/02/19 12:48:44;;;;;;;4.80;2.20;;;18.90;49.30;;;;;;4851384;29;20427;-82
2022/02/19 12:51:30;;;;;;;3.97;1.50;;;17.00;51.50;;;;;;4825115;29;20538;-82
2022/02/19 12:54:35;;;;;;;2.50;1.50;;;17.70;51.70;;;;;;4851018;29;20932;-81
2022/02/19 12:57:23;;;;;;;2.90;1.30;;;18.60;51.40;;;;;;4825791;29;20893;-81
2022/02/19 13:00:10;;;;;;;2.47;1.57;;;18.10;49.70;;;;;;4826379;29;20484;-81
2022/02/19 13:03:00;;;;;;;3.70;3.10;;;17.90;52.00;;;;;;4825404;29;20436;-81
2022/02/19 13:05:56;;;;;;;1.80;1.70;;;17.80;51.90;;;;;;4831786;29;20469;-79
2022/02/19 13:08:40;;;;;;;4.60;1.40;;;18.90;50.90;;;;;;4852749;29;20901;-82
2022/02/19 13:11:26;;;;;;;3.93;1.50;;;19.90;47.90;;;;;;4849884;29;20417;-82
2022/02/19 13:14:13;;;;;;;3.07;1.80;;;19.50;47.50;;;;;;4851460;29;20400;-81
2022/02/19 13:16:59;;;;;;;1.90;1.70;;;19.40;46.80;;;;;;4871308;29;20395;-81
2022/02/19 13:19:44;;;;;;;2.80;1.30;;;17.80;47.60;;;;;;4839103;29;20492;-81
2022/02/19 13:22:30;;;;;;;2.20;1.70;;;18.50;47.40;;;;;;4838128;29;20903;-81
2022/02/19 13:25:17;;;;;;;5.13;1.77;;;17.70;47.40;;;;;;4849484;29;20888;-82
2022/02/19 13:28:07;;;;;;;6.00;1.50;;;18.40;48.90;;;;;;4851843;29;20405;-82
2022/02/19 13:30:52;;;;;;;1.93;1.40;;;18.60;48.10;;;;;;4850962;29;20817;-83
2022/02/19 13:33:37;;;;;;;7.20;1.83;;;18.30;48.80;;;;;;4850959;29;20917;-81
2022/02/19 13:36:24;;;;;;;2.30;1.83;;;18.80;48.60;;;;;;4850391;29;20453;-81
2022/02/19 13:39:17;;;;;;;4.03;1.80;;;19.20;48.10;;;;;;4849782;29;20404;-82
2022/02/19 13:42:02;;;;;;;4.60;1.60;;;19.20;48.90;;;;;;4851881;29;20415;-81
2022/02/19 13:44:50;;;;;;;2.80;1.90;;;19.80;48.50;;;;;;4850270;29;20408;-82
2022/02/19 13:47:35;;;;;;;5.17;1.93;;;17.10;46.90;;;;;;4841188;29;20460;-82
2022/02/19 13:50:35;;;;;;;2.63;1.73;;;17.90;49.70;;;;;;4853015;29;20463;-83
2022/02/19 13:53:28;;;;;;;4.37;2.33;;;16.80;50.00;;;;;;4852739;29;20412;-83
2022/02/19 13:56:14;;;;;;;2.33;1.60;;;17.00;50.20;;;;;;4850809;29;20526;-81
2022/02/19 13:58:58;;;;;;;4.50;1.93;;;17.40;50.90;;;;;;4850180;29;20415;-84
2022/02/19 14:01:45;;;;;;;2.80;1.67;;;16.00;51.40;;;;;;4862055;29;20567;-81
2022/02/19 14:04:32;;;;;;;4.80;2.10;;;14.30;51.00;;;;;;4849163;29;20421;-81
2022/02/19 14:07:16;;;;;;;3.17;1.47;;;13.80;53.30;;;;;;4850645;29;20430;-83
2022/02/19 14:10:07;;;;;;;2.10;1.43;;;13.30;54.90;;;;;;4850324;29;20948;-82
2022/02/19 14:12:52;;;;;;;5.27;3.57;;;12.70;55.60;;;;;;4836268;29;20762;-83
2022/02/19 14:15:38;;;;;;;3.13;2.30;;;12.20;56.50;;;;;;4849502;29;20529;-83
2022/02/19 14:18:23;;;;;;;3.27;1.70;;;12.20;57.70;;;;;;4848625;29;20455;-83
2022/02/19 14:21:19;;;;;;;4.47;1.70;;;12.30;58.10;;;;;;4848681;29;20415;-83
2022/02/19 14:24:08;;;;;;;3.83;1.60;;;12.20;58.10;;;;;;4847302;29;20457;-82
2022/02/19 14:27:11;;;;;;;2.00;1.60;;;11.90;58.90;;;;;;4849516;29;20739;-83
2022/02/19 14:29:56;;;;;;;2.30;1.93;;;11.60;59.90;;;;;;4849681;29;20455;-81
2022/02/19 14:32:43;;;;;;;2.20;1.90;;;11.70;59.50;;;;;;4829933;29;20443;-82
2022/02/19 14:35:29;;;;;;;5.47;1.70;;;11.10;60.70;;;;;;4866157;29;20419;-82
2022/02/19 14:38:18;;;;;;;3.33;2.27;;;11.60;60.10;;;;;;4854909;29;20415;-81
2022/02/19 14:41:05;;;;;;;3.33;2.17;;;11.50;61.50;;;;;;4855034;29;20412;-80
2022/02/19 14:43:50;;;;;;;4.60;1.70;;;11.40;59.30;;;;;;4841397;29;20477;-81